Malatya Erhaç Airport

LTAT · 马拉蒂亚省, 土耳其

罗盘
风向 的 风向 140° Malatya Erhaç Airport 3R/21L
风: 4 kt, 2 beaufort

1 kt

4 kt
改变
0 ft 1.000 2.000 3.000 4.000 5.000
CAVOK
METAR LTAT 012320Z 14004KT CAVOK 01/M03 Q1018 NOSIG RMK RWY03 20004KT 160V220

METAR Malatya Erhaç Airport - LTAT/MLX

Malatya Erhaç Airport是,土耳其中的中型机场。 该机场位于纬度38,43530和经度38,09100。 该机场有2条跑道: 3R/21L 和 3L/21R. 本场的ICAO机场代码为LTAT。 该机场的IATA代码为MLX。 机场在Ankara FIR中。

该航空气象观测是针对Malatya Erhaç Airport在2024年3月2日 02:20, 当地时间进行的。

机场观察

风向为140°,速度为4 kt。

天气为CAVOK。这意味着在5.000 ft或MSA(最低安全高度)以下(以较高者为准)以下没有云。这也意味着没有观测到积雨云或高耸的积云,可见度为10 km 或者更多或更高。此外,不会有雾,降雨或其他重要天气。

温度为1 °C,阵风为-3 °C。 露点为-3 °C,相对湿度为75%。 海平面上的气压为1018 hPa (QNH)。

白天

今天,太阳从06:58升起,在18:20降落。 这适用于Malatya Erhaç Airport,世界夏令时可能有所不同。 当地时间与世界标准时间之间的时差为+3 小时。 当前,没有夏令时有效。

公司介绍

我们没有关于这个机场的公司信息。

体会

到Vliegles.nl去找飞行课程,跳伞和其他飞行体验。 浏览页面,了解Malatya Erhaç Airport附近所有可用的活动。 你也可以使用搜索功能来寻找你所在地附近的特定飞行课程、跳伞或其他飞行体验。

跑道

Id 标题 侧风 逆风 侧风 %
3R/21L 031°-211° 4 kt 1 kt 95 %
3L/21R 031°-211° 4 kt 1 kt 95 %

逆风成分最大的方向会被突出显示,并用于横风计算。 这并不一定意味着这个方向在使用。

温度 & 天气

温度 1 °C
露点 -3 °C
相对湿度 75%
风寒 -3 °C
Kp-index 0 (0-9)

评论

RWY03 20004KT 160V220

白天

日出
06:58 (4:12)
中午
12:39
日落
18:20

小工具

你想在你的网站上有一个关于Malatya Erhaç Airport的当前航空天气(METAR)的小部件吗?

显示HTML代码
?>